CheckWX is a tool to help pilots better visualize weather data.  It is not intended as a substitute for an official pre-flight weather briefing.

12:44:41 UTC

KGLH TAF
Greenville Mid-Delta Airport
Greenville, Mississippi, USA
KGLH 161120Z 1612/1712 20009KT P6SM BKN025 FM161500 21011KT P6SM BKN040 FM161900 21011KT P6SM -TSRA BKN035 BKN050CB FM162300 20007KT P6SM OVC050

Jun-16@
12:00 UTC

Jun-16 @ 12:00 UTC

Jun-16@
15:00 UTC

Jun-16 @ 15:00 UTC

KGLH 161120Z 1612/1712 20009KT P6SM BKN025
Wind
  • 200° at 9 KTS
Cloud Levels
  • Broken at 2,500' AGL

Jun-16@
15:00 UTC

Jun-16 @ 15:00 UTC

Jun-16@
19:00 UTC

Jun-16 @ 19:00 UTC

FM161500 21011KT P6SM BKN040

From

From Standard forecast or significant change

Wind
  • 210° at 11 KTS
Cloud Levels
  • Broken at 4,000' AGL

Jun-16@
19:00 UTC

Jun-16 @ 19:00 UTC

Jun-16@
23:00 UTC

Jun-16 @ 23:00 UTC

FM161900 21011KT P6SM -TSRA BKN035 BKN050CB

From

From Standard forecast or significant change

Wind
  • 210° at 11 KTS
Conditions
Light Thunderstorm, Light Rain
Cloud Levels
  • Broken at 3,500' AGL
  • Broken at 5,000' AGL

Jun-16@
23:00 UTC

Jun-16 @ 23:00 UTC

Jun-17@
12:00 UTC

Jun-17 @ 12:00 UTC

FM162300 20007KT P6SM OVC050

From

From Standard forecast or significant change

Wind
  • 200° at 7 KTS
Cloud Levels
  • Overcast at 5,000' AGL